sensor_id;sensor_type;location;lat;lon;timestamp;P1;durP1;ratioP1;P2;durP2;ratioP2
41253;SDS011;26987;59.928;30.306;2024-01-30T00:02:03;18.58;;;4.50;;
41253;SDS011;26987;59.928;30.306;2024-01-30T00:04:31;13.55;;;4.18;;
41253;SDS011;26987;59.928;30.306;2024-01-30T00:06:59;16.42;;;4.40;;
41253;SDS011;26987;59.928;30.306;2024-01-30T00:09:27;16.48;;;4.18;;
41253;SDS011;26987;59.928;30.306;2024-01-30T00:11:55;21.90;;;5.30;;
41253;SDS011;26987;59.928;30.306;2024-01-30T00:14:23;12.30;;;3.92;;
41253;SDS011;26987;59.928;30.306;2024-01-30T00:16:51;13.73;;;4.72;;
41253;SDS011;26987;59.928;30.306;2024-01-30T00:19:21;14.50;;;3.75;;
41253;SDS011;26987;59.928;30.306;2024-01-30T00:21:49;13.00;;;3.85;;
41253;SDS011;26987;59.928;30.306;2024-01-30T00:24:17;16.40;;;4.13;;
41253;SDS011;26987;59.928;30.306;2024-01-30T00:26:45;18.02;;;4.53;;
41253;SDS011;26987;59.928;30.306;2024-01-30T00:29:13;14.55;;;3.92;;
41253;SDS011;26987;59.928;30.306;2024-01-30T00:31:45;15.45;;;5.55;;
41253;SDS011;26987;59.928;30.306;2024-01-30T00:34:13;11.13;;;4.10;;
41253;SDS011;26987;59.928;30.306;2024-01-30T00:36:42;15.27;;;5.10;;
41253;SDS011;26987;59.928;30.306;2024-01-30T00:39:10;9.75;;;4.18;;
41253;SDS011;26987;59.928;30.306;2024-01-30T00:41:38;15.52;;;4.18;;
41253;SDS011;26987;59.928;30.306;2024-01-30T00:44:06;19.38;;;5.50;;
41253;SDS011;26987;59.928;30.306;2024-01-30T00:46:34;12.00;;;3.70;;
41253;SDS011;26987;59.928;30.306;2024-01-30T00:49:02;14.13;;;4.20;;
41253;SDS011;26987;59.928;30.306;2024-01-30T00:51:30;13.25;;;3.58;;
41253;SDS011;26987;59.928;30.306;2024-01-30T00:54:00;13.18;;;4.28;;
41253;SDS011;26987;59.928;30.306;2024-01-30T00:56:28;16.75;;;4.53;;
41253;SDS011;26987;59.928;30.306;2024-01-30T00:58:56;14.52;;;4.60;;
41253;SDS011;26987;59.928;30.306;2024-01-30T01:01:25;14.27;;;3.58;;
41253;SDS011;26987;59.928;30.306;2024-01-30T01:03:52;12.82;;;4.25;;
41253;SDS011;26987;59.928;30.306;2024-01-30T01:06:20;22.92;;;5.05;;
41253;SDS011;26987;59.928;30.306;2024-01-30T01:08:48;15.30;;;4.40;;
41253;SDS011;26987;59.928;30.306;2024-01-30T01:11:17;9.18;;;3.22;;
41253;SDS011;26987;59.928;30.306;2024-01-30T01:13:45;18.08;;;4.45;;
41253;SDS011;26987;59.928;30.306;2024-01-30T01:16:13;12.68;;;4.07;;
41253;SDS011;26987;59.928;30.306;2024-01-30T01:18:41;21.40;;;4.07;;
41253;SDS011;26987;59.928;30.306;2024-01-30T01:21:09;13.77;;;4.05;;
41253;SDS011;26987;59.928;30.306;2024-01-30T01:23:37;16.27;;;3.80;;
41253;SDS011;26987;59.928;30.306;2024-01-30T01:26:05;17.00;;;5.32;;
41253;SDS011;26987;59.928;30.306;2024-01-30T01:28:34;16.45;;;4.30;;
41253;SDS011;26987;59.928;30.306;2024-01-30T01:31:02;19.20;;;4.32;;
41253;SDS011;26987;59.928;30.306;2024-01-30T01:33:31;16.33;;;4.05;;
41253;SDS011;26987;59.928;30.306;2024-01-30T01:35:59;11.73;;;3.75;;
41253;SDS011;26987;59.928;30.306;2024-01-30T01:38:28;15.13;;;3.70;;
41253;SDS011;26987;59.928;30.306;2024-01-30T01:40:56;14.68;;;4.05;;
41253;SDS011;26987;59.928;30.306;2024-01-30T01:43:24;15.00;;;3.50;;
41253;SDS011;26987;59.928;30.306;2024-01-30T01:45:53;16.20;;;4.10;;
41253;SDS011;26987;59.928;30.306;2024-01-30T01:48:21;11.93;;;4.03;;
41253;SDS011;26987;59.928;30.306;2024-01-30T01:51:06;14.98;;;3.85;;
41253;SDS011;26987;59.928;30.306;2024-01-30T01:53:35;12.63;;;4.20;;
41253;SDS011;26987;59.928;30.306;2024-01-30T01:56:03;13.05;;;4.13;;
41253;SDS011;26987;59.928;30.306;2024-01-30T01:58:32;25.25;;;5.82;;
41253;SDS011;26987;59.928;30.306;2024-01-30T02:01:00;12.60;;;4.60;;
41253;SDS011;26987;59.928;30.306;2024-01-30T02:03:28;13.25;;;5.05;;
41253;SDS011;26987;59.928;30.306;2024-01-30T02:05:57;18.52;;;3.90;;
41253;SDS011;26987;59.928;30.306;2024-01-30T02:08:27;12.30;;;3.95;;
41253;SDS011;26987;59.928;30.306;2024-01-30T02:10:55;11.55;;;4.07;;
41253;SDS011;26987;59.928;30.306;2024-01-30T02:13:23;11.05;;;3.55;;
41253;SDS011;26987;59.928;30.306;2024-01-30T02:15:51;19.17;;;4.55;;
41253;SDS011;26987;59.928;30.306;2024-01-30T02:18:19;10.63;;;4.05;;
41253;SDS011;26987;59.928;30.306;2024-01-30T02:21:04;12.65;;;4.13;;
41253;SDS011;26987;59.928;30.306;2024-01-30T02:23:33;15.25;;;3.55;;
41253;SDS011;26987;59.928;30.306;2024-01-30T02:26:01;14.63;;;4.07;;
41253;SDS011;26987;59.928;30.306;2024-01-30T02:28:29;12.80;;;4.10;;
41253;SDS011;26987;59.928;30.306;2024-01-30T02:30:57;12.27;;;4.18;;
41253;SDS011;26987;59.928;30.306;2024-01-30T02:33:25;22.42;;;5.63;;
41253;SDS011;26987;59.928;30.306;2024-01-30T02:35:53;11.55;;;4.00;;
41253;SDS011;26987;59.928;30.306;2024-01-30T02:38:22;16.88;;;4.25;;
41253;SDS011;26987;59.928;30.306;2024-01-30T02:40:51;13.73;;;4.30;;
41253;SDS011;26987;59.928;30.306;2024-01-30T02:43:18;13.02;;;4.22;;
41253;SDS011;26987;59.928;30.306;2024-01-30T02:45:46;12.75;;;4.28;;
41253;SDS011;26987;59.928;30.306;2024-01-30T02:48:14;13.30;;;4.72;;
41253;SDS011;26987;59.928;30.306;2024-01-30T02:50:43;15.40;;;3.95;;
41253;SDS011;26987;59.928;30.306;2024-01-30T02:53:12;17.95;;;4.38;;
41253;SDS011;26987;59.928;30.306;2024-01-30T02:55:41;16.23;;;4.47;;
41253;SDS011;26987;59.928;30.306;2024-01-30T02:58:09;17.23;;;4.38;;
41253;SDS011;26987;59.928;30.306;2024-01-30T03:00:40;15.80;;;4.72;;
41253;SDS011;26987;59.928;30.306;2024-01-30T03:03:08;25.10;;;6.57;;
41253;SDS011;26987;59.928;30.306;2024-01-30T03:05:41;21.67;;;5.05;;
41253;SDS011;26987;59.928;30.306;2024-01-30T03:08:09;16.25;;;4.90;;
41253;SDS011;26987;59.928;30.306;2024-01-30T03:10:37;22.13;;;4.57;;
41253;SDS011;26987;59.928;30.306;2024-01-30T03:13:06;16.67;;;4.25;;
41253;SDS011;26987;59.928;30.306;2024-01-30T03:15:34;16.77;;;4.55;;
41253;SDS011;26987;59.928;30.306;2024-01-30T03:18:03;19.38;;;4.10;;
41253;SDS011;26987;59.928;30.306;2024-01-30T03:20:31;17.42;;;4.55;;
41253;SDS011;26987;59.928;30.306;2024-01-30T03:22:59;13.40;;;4.45;;
41253;SDS011;26987;59.928;30.306;2024-01-30T03:25:27;13.40;;;4.50;;
41253;SDS011;26987;59.928;30.306;2024-01-30T03:27:55;11.55;;;4.38;;
41253;SDS011;26987;59.928;30.306;2024-01-30T03:30:25;18.70;;;4.68;;
41253;SDS011;26987;59.928;30.306;2024-01-30T03:32:53;16.33;;;4.65;;
41253;SDS011;26987;59.928;30.306;2024-01-30T03:35:20;15.27;;;4.43;;
41253;SDS011;26987;59.928;30.306;2024-01-30T03:37:48;23.10;;;5.90;;
41253;SDS011;26987;59.928;30.306;2024-01-30T03:40:16;13.45;;;4.95;;
41253;SDS011;26987;59.928;30.306;2024-01-30T03:42:44;19.15;;;4.93;;
41253;SDS011;26987;59.928;30.306;2024-01-30T03:45:13;18.42;;;5.43;;
41253;SDS011;26987;59.928;30.306;2024-01-30T03:47:44;13.75;;;4.75;;
41253;SDS011;26987;59.928;30.306;2024-01-30T03:50:12;16.15;;;4.93;;
41253;SDS011;26987;59.928;30.306;2024-01-30T03:52:40;16.20;;;4.25;;
41253;SDS011;26987;59.928;30.306;2024-01-30T03:55:08;11.75;;;4.70;;
41253;SDS011;26987;59.928;30.306;2024-01-30T03:57:36;16.73;;;4.88;;
41253;SDS011;26987;59.928;30.306;2024-01-30T04:00:04;18.63;;;5.07;;
41253;SDS011;26987;59.928;30.306;2024-01-30T04:02:38;15.60;;;4.70;;
41253;SDS011;26987;59.928;30.306;2024-01-30T04:05:08;17.52;;;5.07;;
41253;SDS011;26987;59.928;30.306;2024-01-30T04:07:36;20.67;;;5.03;;
41253;SDS011;26987;59.928;30.306;2024-01-30T04:10:04;17.10;;;5.38;;
41253;SDS011;26987;59.928;30.306;2024-01-30T04:12:33;18.40;;;6.15;;
41253;SDS011;26987;59.928;30.306;2024-01-30T04:15:01;13.88;;;5.15;;
41253;SDS011;26987;59.928;30.306;2024-01-30T04:17:29;14.48;;;4.18;;
41253;SDS011;26987;59.928;30.306;2024-01-30T04:19:57;16.05;;;4.45;;
41253;SDS011;26987;59.928;30.306;2024-01-30T04:22:26;14.68;;;4.93;;
41253;SDS011;26987;59.928;30.306;2024-01-30T04:24:54;16.00;;;4.63;;
41253;SDS011;26987;59.928;30.306;2024-01-30T04:27:22;14.85;;;4.75;;
41253;SDS011;26987;59.928;30.306;2024-01-30T04:29:50;21.35;;;5.25;;
41253;SDS011;26987;59.928;30.306;2024-01-30T04:32:18;25.02;;;5.40;;
41253;SDS011;26987;59.928;30.306;2024-01-30T04:34:46;15.05;;;5.28;;
41253;SDS011;26987;59.928;30.306;2024-01-30T04:37:14;17.60;;;5.20;;
41253;SDS011;26987;59.928;30.306;2024-01-30T04:39:43;16.00;;;4.95;;
41253;SDS011;26987;59.928;30.306;2024-01-30T04:42:11;20.30;;;5.57;;
41253;SDS011;26987;59.928;30.306;2024-01-30T04:44:39;17.35;;;5.30;;
41253;SDS011;26987;59.928;30.306;2024-01-30T04:47:07;19.88;;;5.80;;
41253;SDS011;26987;59.928;30.306;2024-01-30T04:49:37;21.73;;;5.32;;
41253;SDS011;26987;59.928;30.306;2024-01-30T04:52:05;19.48;;;5.43;;
41253;SDS011;26987;59.928;30.306;2024-01-30T04:54:33;16.42;;;5.40;;
41253;SDS011;26987;59.928;30.306;2024-01-30T04:57:03;14.90;;;5.00;;
41253;SDS011;26987;59.928;30.306;2024-01-30T04:59:35;18.25;;;4.97;;
41253;SDS011;26987;59.928;30.306;2024-01-30T05:02:03;16.90;;;4.97;;
41253;SDS011;26987;59.928;30.306;2024-01-30T05:04:31;17.40;;;5.88;;
41253;SDS011;26987;59.928;30.306;2024-01-30T05:06:59;19.58;;;5.38;;
41253;SDS011;26987;59.928;30.306;2024-01-30T05:09:27;19.75;;;5.50;;
41253;SDS011;26987;59.928;30.306;2024-01-30T05:11:55;19.60;;;5.40;;
41253;SDS011;26987;59.928;30.306;2024-01-30T05:14:25;16.52;;;5.70;;
41253;SDS011;26987;59.928;30.306;2024-01-30T05:16:53;17.30;;;5.28;;
41253;SDS011;26987;59.928;30.306;2024-01-30T05:19:21;16.35;;;5.88;;
41253;SDS011;26987;59.928;30.306;2024-01-30T05:21:49;17.50;;;4.88;;
41253;SDS011;26987;59.928;30.306;2024-01-30T05:24:17;17.48;;;5.20;;
41253;SDS011;26987;59.928;30.306;2024-01-30T05:26:45;19.00;;;4.90;;
41253;SDS011;26987;59.928;30.306;2024-01-30T05:29:14;24.65;;;6.13;;
41253;SDS011;26987;59.928;30.306;2024-01-30T05:31:43;17.20;;;5.57;;
41253;SDS011;26987;59.928;30.306;2024-01-30T05:34:11;26.02;;;6.50;;
41253;SDS011;26987;59.928;30.306;2024-01-30T05:36:39;21.35;;;5.90;;
41253;SDS011;26987;59.928;30.306;2024-01-30T05:39:07;25.40;;;6.60;;
41253;SDS011;26987;59.928;30.306;2024-01-30T05:41:36;17.45;;;5.38;;
41253;SDS011;26987;59.928;30.306;2024-01-30T05:44:04;19.67;;;5.93;;
41253;SDS011;26987;59.928;30.306;2024-01-30T05:46:33;18.02;;;5.68;;
41253;SDS011;26987;59.928;30.306;2024-01-30T05:49:02;18.80;;;6.00;;
41253;SDS011;26987;59.928;30.306;2024-01-30T05:51:30;24.48;;;5.93;;
41253;SDS011;26987;59.928;30.306;2024-01-30T05:53:58;22.17;;;6.40;;
41253;SDS011;26987;59.928;30.306;2024-01-30T05:56:29;22.35;;;6.43;;
41253;SDS011;26987;59.928;30.306;2024-01-30T05:58:57;17.13;;;5.18;;
41253;SDS011;26987;59.928;30.306;2024-01-30T06:01:25;19.38;;;6.18;;
41253;SDS011;26987;59.928;30.306;2024-01-30T06:03:53;23.77;;;5.53;;
41253;SDS011;26987;59.928;30.306;2024-01-30T06:06:22;21.92;;;5.72;;
41253;SDS011;26987;59.928;30.306;2024-01-30T06:08:50;21.13;;;6.28;;
41253;SDS011;26987;59.928;30.306;2024-01-30T06:11:21;19.27;;;7.45;;
41253;SDS011;26987;59.928;30.306;2024-01-30T06:13:49;15.32;;;4.68;;
41253;SDS011;26987;59.928;30.306;2024-01-30T06:16:17;18.50;;;5.38;;
41253;SDS011;26987;59.928;30.306;2024-01-30T06:18:46;14.23;;;5.72;;
41253;SDS011;26987;59.928;30.306;2024-01-30T06:21:14;16.65;;;6.05;;
41253;SDS011;26987;59.928;30.306;2024-01-30T06:23:44;20.45;;;7.05;;
41253;SDS011;26987;59.928;30.306;2024-01-30T06:26:12;17.42;;;6.00;;
41253;SDS011;26987;59.928;30.306;2024-01-30T06:28:40;21.77;;;6.97;;
41253;SDS011;26987;59.928;30.306;2024-01-30T06:31:07;18.63;;;6.43;;
41253;SDS011;26987;59.928;30.306;2024-01-30T06:33:35;22.75;;;6.63;;
41253;SDS011;26987;59.928;30.306;2024-01-30T06:36:03;19.25;;;6.40;;
41253;SDS011;26987;59.928;30.306;2024-01-30T06:38:31;15.32;;;5.70;;
41253;SDS011;26987;59.928;30.306;2024-01-30T06:41:01;21.00;;;6.95;;
41253;SDS011;26987;59.928;30.306;2024-01-30T06:43:28;15.23;;;5.70;;
41253;SDS011;26987;59.928;30.306;2024-01-30T06:45:56;16.48;;;5.68;;
41253;SDS011;26987;59.928;30.306;2024-01-30T06:48:25;19.05;;;5.97;;
41253;SDS011;26987;59.928;30.306;2024-01-30T06:50:53;15.18;;;4.95;;
41253;SDS011;26987;59.928;30.306;2024-01-30T06:53:21;14.35;;;5.80;;
41253;SDS011;26987;59.928;30.306;2024-01-30T06:55:49;22.48;;;5.75;;
41253;SDS011;26987;59.928;30.306;2024-01-30T06:58:18;15.15;;;5.43;;
41253;SDS011;26987;59.928;30.306;2024-01-30T07:00:46;18.17;;;6.13;;
41253;SDS011;26987;59.928;30.306;2024-01-30T07:03:14;17.50;;;5.68;;
41253;SDS011;26987;59.928;30.306;2024-01-30T07:05:42;18.15;;;5.55;;
41253;SDS011;26987;59.928;30.306;2024-01-30T07:08:10;18.45;;;6.80;;
41253;SDS011;26987;59.928;30.306;2024-01-30T07:10:38;19.88;;;6.68;;
41253;SDS011;26987;59.928;30.306;2024-01-30T07:13:06;22.40;;;6.25;;
41253;SDS011;26987;59.928;30.306;2024-01-30T07:15:37;24.52;;;6.47;;
41253;SDS011;26987;59.928;30.306;2024-01-30T07:18:05;17.17;;;6.57;;
41253;SDS011;26987;59.928;30.306;2024-01-30T07:20:33;28.00;;;6.82;;
41253;SDS011;26987;59.928;30.306;2024-01-30T07:23:01;17.65;;;6.00;;
41253;SDS011;26987;59.928;30.306;2024-01-30T07:25:29;21.17;;;5.75;;
41253;SDS011;26987;59.928;30.306;2024-01-30T07:27:57;20.98;;;5.57;;
41253;SDS011;26987;59.928;30.306;2024-01-30T07:30:25;23.10;;;5.47;;
41253;SDS011;26987;59.928;30.306;2024-01-30T07:32:54;20.60;;;7.25;;
41253;SDS011;26987;59.928;30.306;2024-01-30T07:35:22;25.30;;;6.03;;
41253;SDS011;26987;59.928;30.306;2024-01-30T07:37:50;17.55;;;5.57;;
41253;SDS011;26987;59.928;30.306;2024-01-30T07:40:18;22.27;;;6.30;;
41253;SDS011;26987;59.928;30.306;2024-01-30T07:42:48;31.17;;;6.28;;
41253;SDS011;26987;59.928;30.306;2024-01-30T07:45:16;26.02;;;7.13;;
41253;SDS011;26987;59.928;30.306;2024-01-30T07:47:48;26.90;;;7.18;;
41253;SDS011;26987;59.928;30.306;2024-01-30T07:50:17;30.58;;;9.85;;
41253;SDS011;26987;59.928;30.306;2024-01-30T07:52:45;25.13;;;8.75;;
41253;SDS011;26987;59.928;30.306;2024-01-30T07:55:17;31.27;;;9.95;;
41253;SDS011;26987;59.928;30.306;2024-01-30T07:57:45;39.22;;;9.25;;
41253;SDS011;26987;59.928;30.306;2024-01-30T08:00:14;48.08;;;8.57;;
41253;SDS011;26987;59.928;30.306;2024-01-30T08:02:43;34.58;;;8.27;;
41253;SDS011;26987;59.928;30.306;2024-01-30T08:05:10;25.85;;;6.85;;
41253;SDS011;26987;59.928;30.306;2024-01-30T08:07:42;30.90;;;7.65;;
41253;SDS011;26987;59.928;30.306;2024-01-30T08:10:11;26.00;;;6.78;;
41253;SDS011;26987;59.928;30.306;2024-01-30T08:12:39;28.75;;;6.93;;
41253;SDS011;26987;59.928;30.306;2024-01-30T08:15:07;19.75;;;7.20;;
41253;SDS011;26987;59.928;30.306;2024-01-30T08:17:36;24.50;;;6.82;;
41253;SDS011;26987;59.928;30.306;2024-01-30T08:20:04;22.05;;;6.50;;
41253;SDS011;26987;59.928;30.306;2024-01-30T08:22:34;19.33;;;6.43;;
41253;SDS011;26987;59.928;30.306;2024-01-30T08:25:03;27.67;;;7.65;;
41253;SDS011;26987;59.928;30.306;2024-01-30T08:27:32;19.50;;;5.97;;
41253;SDS011;26987;59.928;30.306;2024-01-30T08:30:01;24.92;;;7.60;;
41253;SDS011;26987;59.928;30.306;2024-01-30T08:32:29;32.63;;;7.35;;
41253;SDS011;26987;59.928;30.306;2024-01-30T08:34:57;20.20;;;6.45;;
41253;SDS011;26987;59.928;30.306;2024-01-30T08:37:25;24.02;;;7.07;;
41253;SDS011;26987;59.928;30.306;2024-01-30T08:39:53;21.17;;;6.72;;
41253;SDS011;26987;59.928;30.306;2024-01-30T08:42:22;20.15;;;5.95;;
41253;SDS011;26987;59.928;30.306;2024-01-30T08:44:54;25.30;;;7.70;;
41253;SDS011;26987;59.928;30.306;2024-01-30T08:47:22;25.60;;;7.07;;
41253;SDS011;26987;59.928;30.306;2024-01-30T08:49:51;19.88;;;6.90;;
41253;SDS011;26987;59.928;30.306;2024-01-30T08:52:19;23.20;;;6.93;;
41253;SDS011;26987;59.928;30.306;2024-01-30T08:54:46;24.35;;;6.47;;
41253;SDS011;26987;59.928;30.306;2024-01-30T08:57:14;24.95;;;7.85;;
41253;SDS011;26987;59.928;30.306;2024-01-30T08:59:44;21.98;;;7.40;;
41253;SDS011;26987;59.928;30.306;2024-01-30T09:02:13;22.67;;;7.35;;
41253;SDS011;26987;59.928;30.306;2024-01-30T09:04:42;20.90;;;7.00;;
41253;SDS011;26987;59.928;30.306;2024-01-30T09:07:10;29.45;;;7.60;;
41253;SDS011;26987;59.928;30.306;2024-01-30T09:09:39;27.00;;;8.15;;
41253;SDS011;26987;59.928;30.306;2024-01-30T09:12:07;27.55;;;7.72;;
41253;SDS011;26987;59.928;30.306;2024-01-30T09:14:37;20.10;;;8.20;;
41253;SDS011;26987;59.928;30.306;2024-01-30T09:17:07;25.08;;;8.07;;
41253;SDS011;26987;59.928;30.306;2024-01-30T09:19:35;24.20;;;7.63;;
41253;SDS011;26987;59.928;30.306;2024-01-30T09:22:03;24.90;;;8.25;;
41253;SDS011;26987;59.928;30.306;2024-01-30T09:24:32;33.85;;;8.60;;
41253;SDS011;26987;59.928;30.306;2024-01-30T09:27:00;27.98;;;8.45;;
41253;SDS011;26987;59.928;30.306;2024-01-30T09:29:28;30.88;;;8.52;;
41253;SDS011;26987;59.928;30.306;2024-01-30T09:31:56;23.88;;;8.48;;
41253;SDS011;26987;59.928;30.306;2024-01-30T09:34:25;35.13;;;9.48;;
41253;SDS011;26987;59.928;30.306;2024-01-30T09:36:53;24.30;;;7.32;;
41253;SDS011;26987;59.928;30.306;2024-01-30T09:39:21;34.72;;;8.32;;
41253;SDS011;26987;59.928;30.306;2024-01-30T09:41:49;33.95;;;8.07;;
41253;SDS011;26987;59.928;30.306;2024-01-30T09:44:23;25.25;;;7.70;;
41253;SDS011;26987;59.928;30.306;2024-01-30T09:46:55;21.50;;;7.57;;
41253;SDS011;26987;59.928;30.306;2024-01-30T09:49:26;28.08;;;9.93;;
41253;SDS011;26987;59.928;30.306;2024-01-30T09:51:54;23.23;;;8.32;;
41253;SDS011;26987;59.928;30.306;2024-01-30T09:54:22;24.17;;;8.13;;
41253;SDS011;26987;59.928;30.306;2024-01-30T09:56:51;29.00;;;7.80;;
41253;SDS011;26987;59.928;30.306;2024-01-30T09:59:18;31.02;;;8.05;;
41253;SDS011;26987;59.928;30.306;2024-01-30T10:01:47;25.45;;;8.15;;
41253;SDS011;26987;59.928;30.306;2024-01-30T10:04:15;24.00;;;8.23;;
41253;SDS011;26987;59.928;30.306;2024-01-30T10:06:44;26.23;;;8.55;;
41253;SDS011;26987;59.928;30.306;2024-01-30T10:09:13;25.15;;;8.65;;
41253;SDS011;26987;59.928;30.306;2024-01-30T10:11:41;27.27;;;8.05;;
41253;SDS011;26987;59.928;30.306;2024-01-30T10:14:09;25.13;;;7.70;;
41253;SDS011;26987;59.928;30.306;2024-01-30T10:16:37;22.65;;;7.70;;
41253;SDS011;26987;59.928;30.306;2024-01-30T10:19:05;26.50;;;8.02;;
41253;SDS011;26987;59.928;30.306;2024-01-30T10:21:33;23.95;;;7.88;;
41253;SDS011;26987;59.928;30.306;2024-01-30T10:24:03;30.48;;;9.25;;
41253;SDS011;26987;59.928;30.306;2024-01-30T10:26:31;21.88;;;8.27;;
41253;SDS011;26987;59.928;30.306;2024-01-30T10:29:00;23.75;;;8.50;;
41253;SDS011;26987;59.928;30.306;2024-01-30T10:31:28;22.35;;;7.13;;
41253;SDS011;26987;59.928;30.306;2024-01-30T10:33:56;25.92;;;8.20;;
41253;SDS011;26987;59.928;30.306;2024-01-30T10:36:25;30.63;;;7.80;;
41253;SDS011;26987;59.928;30.306;2024-01-30T10:38:57;18.35;;;7.63;;
41253;SDS011;26987;59.928;30.306;2024-01-30T10:41:35;23.80;;;8.52;;
41253;SDS011;26987;59.928;30.306;2024-01-30T10:44:09;17.92;;;7.18;;
41253;SDS011;26987;59.928;30.306;2024-01-30T10:46:38;24.40;;;7.75;;
41253;SDS011;26987;59.928;30.306;2024-01-30T10:49:06;25.55;;;8.13;;
41253;SDS011;26987;59.928;30.306;2024-01-30T10:51:34;19.08;;;8.00;;
41253;SDS011;26987;59.928;30.306;2024-01-30T10:54:05;18.73;;;8.13;;
41253;SDS011;26987;59.928;30.306;2024-01-30T10:56:35;21.33;;;8.35;;
41253;SDS011;26987;59.928;30.306;2024-01-30T10:59:04;21.67;;;8.02;;
41253;SDS011;26987;59.928;30.306;2024-01-30T11:01:32;20.48;;;7.60;;
41253;SDS011;26987;59.928;30.306;2024-01-30T11:04:02;23.38;;;8.05;;
41253;SDS011;26987;59.928;30.306;2024-01-30T11:06:30;20.65;;;6.93;;
41253;SDS011;26987;59.928;30.306;2024-01-30T11:09:02;16.15;;;6.03;;
41253;SDS011;26987;59.928;30.306;2024-01-30T11:11:49;16.40;;;7.03;;
41253;SDS011;26987;59.928;30.306;2024-01-30T11:14:22;20.23;;;6.70;;
41253;SDS011;26987;59.928;30.306;2024-01-30T11:16:51;16.10;;;6.22;;
41253;SDS011;26987;59.928;30.306;2024-01-30T11:19:25;20.48;;;6.78;;
41253;SDS011;26987;59.928;30.306;2024-01-30T11:21:53;22.92;;;6.53;;
41253;SDS011;26987;59.928;30.306;2024-01-30T11:24:23;19.05;;;6.85;;
41253;SDS011;26987;59.928;30.306;2024-01-30T11:26:56;23.75;;;7.30;;
41253;SDS011;26987;59.928;30.306;2024-01-30T11:29:25;16.38;;;5.95;;
41253;SDS011;26987;59.928;30.306;2024-01-30T11:31:54;18.60;;;6.57;;
41253;SDS011;26987;59.928;30.306;2024-01-30T11:34:23;23.15;;;5.85;;
41253;SDS011;26987;59.928;30.306;2024-01-30T11:36:52;21.23;;;6.30;;
41253;SDS011;26987;59.928;30.306;2024-01-30T11:39:25;23.80;;;6.78;;
41253;SDS011;26987;59.928;30.306;2024-01-30T11:41:53;24.77;;;6.63;;
41253;SDS011;26987;59.928;30.306;2024-01-30T11:44:23;25.33;;;6.60;;
41253;SDS011;26987;59.928;30.306;2024-01-30T11:46:51;23.77;;;7.10;;
41253;SDS011;26987;59.928;30.306;2024-01-30T11:49:19;23.05;;;6.80;;
41253;SDS011;26987;59.928;30.306;2024-01-30T11:51:48;17.13;;;6.10;;
41253;SDS011;26987;59.928;30.306;2024-01-30T11:54:16;18.65;;;6.45;;
41253;SDS011;26987;59.928;30.306;2024-01-30T11:56:44;17.77;;;6.03;;
41253;SDS011;26987;59.928;30.306;2024-01-30T11:59:12;14.48;;;5.65;;
41253;SDS011;26987;59.928;30.306;2024-01-30T12:01:42;21.08;;;5.60;;
41253;SDS011;26987;59.928;30.306;2024-01-30T12:04:10;19.75;;;6.90;;
41253;SDS011;26987;59.928;30.306;2024-01-30T12:06:38;22.27;;;6.45;;
41253;SDS011;26987;59.928;30.306;2024-01-30T12:09:07;18.20;;;5.88;;
41253;SDS011;26987;59.928;30.306;2024-01-30T12:11:47;17.83;;;5.38;;
41253;SDS011;26987;59.928;30.306;2024-01-30T12:14:16;17.42;;;5.68;;
41253;SDS011;26987;59.928;30.306;2024-01-30T12:16:49;22.80;;;6.00;;
41253;SDS011;26987;59.928;30.306;2024-01-30T12:19:23;22.35;;;6.28;;
41253;SDS011;26987;59.928;30.306;2024-01-30T12:21:54;14.43;;;5.70;;
41253;SDS011;26987;59.928;30.306;2024-01-30T12:24:25;18.15;;;6.32;;
41253;SDS011;26987;59.928;30.306;2024-01-30T12:26:56;29.40;;;6.47;;
41253;SDS011;26987;59.928;30.306;2024-01-30T12:29:24;19.60;;;6.05;;
41253;SDS011;26987;59.928;30.306;2024-01-30T12:31:54;19.75;;;6.35;;
41253;SDS011;26987;59.928;30.306;2024-01-30T12:34:24;28.48;;;7.18;;
41253;SDS011;26987;59.928;30.306;2024-01-30T12:36:52;21.95;;;8.13;;
41253;SDS011;26987;59.928;30.306;2024-01-30T12:39:20;23.02;;;7.85;;
41253;SDS011;26987;59.928;30.306;2024-01-30T12:41:49;22.95;;;7.55;;
41253;SDS011;26987;59.928;30.306;2024-01-30T12:44:17;25.95;;;8.05;;
41253;SDS011;26987;59.928;30.306;2024-01-30T12:46:46;23.77;;;7.32;;
41253;SDS011;26987;59.928;30.306;2024-01-30T12:49:16;19.10;;;8.55;;
41253;SDS011;26987;59.928;30.306;2024-01-30T12:51:44;23.85;;;8.18;;
41253;SDS011;26987;59.928;30.306;2024-01-30T12:54:12;22.15;;;8.05;;
41253;SDS011;26987;59.928;30.306;2024-01-30T12:56:40;26.63;;;7.45;;
41253;SDS011;26987;59.928;30.306;2024-01-30T12:59:08;21.58;;;7.95;;
41253;SDS011;26987;59.928;30.306;2024-01-30T13:01:36;20.98;;;7.20;;
41253;SDS011;26987;59.928;30.306;2024-01-30T13:04:04;28.50;;;8.32;;
41253;SDS011;26987;59.928;30.306;2024-01-30T13:06:33;18.75;;;6.93;;
41253;SDS011;26987;59.928;30.306;2024-01-30T13:09:01;23.48;;;8.00;;
41253;SDS011;26987;59.928;30.306;2024-01-30T13:11:29;21.40;;;7.45;;
41253;SDS011;26987;59.928;30.306;2024-01-30T13:13:57;22.48;;;7.43;;
41253;SDS011;26987;59.928;30.306;2024-01-30T13:16:24;53.08;;;7.80;;
41253;SDS011;26987;59.928;30.306;2024-01-30T13:18:52;26.25;;;7.25;;
41253;SDS011;26987;59.928;30.306;2024-01-30T13:21:21;18.92;;;6.40;;
41253;SDS011;26987;59.928;30.306;2024-01-30T13:23:50;25.45;;;7.35;;
41253;SDS011;26987;59.928;30.306;2024-01-30T13:26:20;24.20;;;7.75;;
41253;SDS011;26987;59.928;30.306;2024-01-30T13:28:48;20.35;;;7.85;;
41253;SDS011;26987;59.928;30.306;2024-01-30T13:31:16;19.85;;;8.25;;
41253;SDS011;26987;59.928;30.306;2024-01-30T13:33:45;31.08;;;8.50;;
41253;SDS011;26987;59.928;30.306;2024-01-30T13:36:13;25.75;;;8.30;;
41253;SDS011;26987;59.928;30.306;2024-01-30T13:38:41;29.77;;;9.45;;
41253;SDS011;26987;59.928;30.306;2024-01-30T13:41:10;22.55;;;8.70;;
41253;SDS011;26987;59.928;30.306;2024-01-30T13:43:38;21.08;;;8.00;;
41253;SDS011;26987;59.928;30.306;2024-01-30T13:46:06;27.15;;;7.88;;
41253;SDS011;26987;59.928;30.306;2024-01-30T13:48:34;25.70;;;8.15;;
41253;SDS011;26987;59.928;30.306;2024-01-30T13:51:02;26.58;;;8.80;;
41253;SDS011;26987;59.928;30.306;2024-01-30T13:53:30;21.52;;;7.88;;
41253;SDS011;26987;59.928;30.306;2024-01-30T13:55:58;25.75;;;7.55;;
41253;SDS011;26987;59.928;30.306;2024-01-30T13:58:28;21.88;;;7.47;;
41253;SDS011;26987;59.928;30.306;2024-01-30T14:00:55;19.25;;;7.10;;
41253;SDS011;26987;59.928;30.306;2024-01-30T14:03:23;27.08;;;7.10;;
41253;SDS011;26987;59.928;30.306;2024-01-30T14:05:51;21.80;;;7.50;;
41253;SDS011;26987;59.928;30.306;2024-01-30T14:08:19;19.27;;;6.82;;
41253;SDS011;26987;59.928;30.306;2024-01-30T14:10:50;23.23;;;7.13;;
41253;SDS011;26987;59.928;30.306;2024-01-30T14:13:17;18.75;;;6.97;;
41253;SDS011;26987;59.928;30.306;2024-01-30T14:15:47;27.75;;;7.53;;
41253;SDS011;26987;59.928;30.306;2024-01-30T14:18:15;23.25;;;7.57;;
41253;SDS011;26987;59.928;30.306;2024-01-30T14:20:43;23.52;;;8.13;;
41253;SDS011;26987;59.928;30.306;2024-01-30T14:23:11;23.85;;;7.72;;
41253;SDS011;26987;59.928;30.306;2024-01-30T14:25:39;25.63;;;8.05;;
41253;SDS011;26987;59.928;30.306;2024-01-30T14:28:07;27.63;;;8.15;;
41253;SDS011;26987;59.928;30.306;2024-01-30T14:30:35;31.73;;;7.78;;